Aeroporto :
LOGIN :

Iscrizione | Disclaimer

   EN    FR    IT 

 










Sommario :    VFR   VFR Marginale   IFR   IFR Intensivo   IFR Molto Intensivo
Visibilità : 
Base nubi : 
>= 8 km
>= 3000ft
5 / 8 km
1000 / 3000 ft
1500m / 5 km
500 / 1000 ft
800 / 1500m
200 / 500 ft
< 800m
< 200 ft
Simboli :   Temporali  Nebbia  Neve Forte  Precipitazioni Forti  Vento > 20 kt
SIGMETs :   Varie  Temporali  Ghiacco  Turbolenza  Onda orograficha  Ceneri Vulcaniche






- Altitudine del aeroporto : 230 ft


ETHB - Buckeburg Army

ULTIMO METAR :
  • 221320Z AUTO 28018KT 9999 // ////// 08/06 Q1011 ///

METARs OBSOLETI :
  • 221249Z 28020KT 5000 SHRA FEW017 BKN020CB BKN030 09/07 Q1010 WHT
  • 221241Z 27019KT 7000 -SHRA SCT023CB BKN030 09/07 Q1010 WHT
  • 221220Z 27021G33KT 8000 -SHRA FEW023CB BKN027 BKN039 10/06 Q1009 BLU
  • 221120Z 26023G34KT 9999 -SHRA SCT025 BKN030 10/05 Q1009 BLU

TAF TAF ETHB
Valido dal 22 a 08 ore il 22 a 17 ore UTC


220701Z 2208/2217 25018G25KT 9999 NSW SCT030 BKN060
TEMPO 2208/2217 27020G35KT 4000 SHRA SCT010 BKN020CB
PROB30 2211/2216 28025G40KT 3000 TSGS BKN008 BKN015CB



MetMap, La meteo Aeronautica in un colpo d'occhio ! - Copyright ORBIFLY Dicembre 2007 - Disclaimer

ORBIFLY MET'MAP TEAM :

Programmazione e sviluppo : Alexandra Zaïnal
Concezione : Baudouin d'Aumeries
Aiuto per la programmazione : Marc-Olivier Méhu
Supporto tecnico e logistico : Manuel Goepfert
Aiuto per la traduzione : Arnaldo La Scala

Contatto : metmap@orbifly.com




FONTI E CREDITI :

   NOAA